sensor_id;sensor_type;location;lat;lon;timestamp;P1;durP1;ratioP1;P2;durP2;ratioP2
9310;SDS011;4694;52.464;13.480;2022-09-13T00:00:16;6.63;;;4.93;;
9310;SDS011;4694;52.464;13.480;2022-09-13T00:02:43;6.40;;;4.85;;
9310;SDS011;4694;52.464;13.480;2022-09-13T00:05:09;6.50;;;5.68;;
9310;SDS011;4694;52.464;13.480;2022-09-13T00:07:37;5.43;;;4.90;;
9310;SDS011;4694;52.464;13.480;2022-09-13T00:10:04;6.10;;;4.65;;
9310;SDS011;4694;52.464;13.480;2022-09-13T00:12:31;7.00;;;5.07;;
9310;SDS011;4694;52.464;13.480;2022-09-13T00:14:58;8.30;;;5.20;;
9310;SDS011;4694;52.464;13.480;2022-09-13T00:17:25;5.75;;;5.18;;
9310;SDS011;4694;52.464;13.480;2022-09-13T00:19:51;5.78;;;5.13;;
9310;SDS011;4694;52.464;13.480;2022-09-13T00:22:18;7.28;;;5.15;;
9310;SDS011;4694;52.464;13.480;2022-09-13T00:24:46;6.40;;;5.00;;
9310;SDS011;4694;52.464;13.480;2022-09-13T00:27:12;8.77;;;4.85;;
9310;SDS011;4694;52.464;13.480;2022-09-13T00:29:39;5.60;;;5.10;;
9310;SDS011;4694;52.464;13.480;2022-09-13T00:32:05;5.50;;;4.50;;
9310;SDS011;4694;52.464;13.480;2022-09-13T00:34:32;12.50;;;6.05;;
9310;SDS011;4694;52.464;13.480;2022-09-13T00:36:59;7.57;;;5.28;;
9310;SDS011;4694;52.464;13.480;2022-09-13T00:39:25;7.20;;;5.72;;
9310;SDS011;4694;52.464;13.480;2022-09-13T00:41:53;6.28;;;5.53;;
9310;SDS011;4694;52.464;13.480;2022-09-13T00:47:20;6.78;;;4.93;;
9310;SDS011;4694;52.464;13.480;2022-09-13T00:49:50;7.38;;;5.03;;
9310;SDS011;4694;52.464;13.480;2022-09-13T00:52:21;5.28;;;4.78;;
9310;SDS011;4694;52.464;13.480;2022-09-13T00:54:53;7.30;;;5.27;;
9310;SDS011;4694;52.464;13.480;2022-09-13T00:57:25;5.65;;;4.93;;
9310;SDS011;4694;52.464;13.480;2022-09-13T00:59:54;8.73;;;5.18;;
9310;SDS011;4694;52.464;13.480;2022-09-13T01:02:29;5.32;;;4.63;;
9310;SDS011;4694;52.464;13.480;2022-09-13T01:04:57;7.15;;;4.47;;
9310;SDS011;4694;52.464;13.480;2022-09-13T01:07:24;5.85;;;4.70;;
9310;SDS011;4694;52.464;13.480;2022-09-13T01:09:50;6.03;;;4.80;;
9310;SDS011;4694;52.464;13.480;2022-09-13T01:12:20;5.38;;;4.88;;
9310;SDS011;4694;52.464;13.480;2022-09-13T01:14:57;5.93;;;5.07;;
9310;SDS011;4694;52.464;13.480;2022-09-13T01:17:26;6.65;;;4.85;;
9310;SDS011;4694;52.464;13.480;2022-09-13T01:19:55;6.57;;;4.78;;
9310;SDS011;4694;52.464;13.480;2022-09-13T01:22:35;5.18;;;4.68;;
9310;SDS011;4694;52.464;13.480;2022-09-13T01:25:27;5.00;;;4.45;;
9310;SDS011;4694;52.464;13.480;2022-09-13T01:28:28;7.07;;;4.47;;
9310;SDS011;4694;52.464;13.480;2022-09-13T01:31:12;4.97;;;4.47;;
9310;SDS011;4694;52.464;13.480;2022-09-13T01:33:48;7.30;;;5.40;;
9310;SDS011;4694;52.464;13.480;2022-09-13T01:36:34;6.10;;;5.47;;
9310;SDS011;4694;52.464;13.480;2022-09-13T01:39:21;5.60;;;5.05;;
9310;SDS011;4694;52.464;13.480;2022-09-13T01:42:04;7.20;;;5.63;;
9310;SDS011;4694;52.464;13.480;2022-09-13T01:44:45;6.82;;;5.50;;
9310;SDS011;4694;52.464;13.480;2022-09-13T01:47:25;5.47;;;4.95;;
9310;SDS011;4694;52.464;13.480;2022-09-13T01:49:58;7.43;;;5.20;;
9310;SDS011;4694;52.464;13.480;2022-09-13T01:52:34;6.18;;;5.57;;
9310;SDS011;4694;52.464;13.480;2022-09-13T01:55:06;8.07;;;5.40;;
9310;SDS011;4694;52.464;13.480;2022-09-13T01:57:40;6.47;;;5.47;;
9310;SDS011;4694;52.464;13.480;2022-09-13T02:00:12;5.88;;;5.28;;
9310;SDS011;4694;52.464;13.480;2022-09-13T02:02:44;6.83;;;5.33;;
9310;SDS011;4694;52.464;13.480;2022-09-13T02:05:16;6.82;;;5.60;;
9310;SDS011;4694;52.464;13.480;2022-09-13T02:07:49;8.20;;;6.03;;
9310;SDS011;4694;52.464;13.480;2022-09-13T02:10:20;7.57;;;5.35;;
9310;SDS011;4694;52.464;13.480;2022-09-13T02:12:50;9.70;;;5.95;;
9310;SDS011;4694;52.464;13.480;2022-09-13T02:15:19;6.65;;;4.97;;
9310;SDS011;4694;52.464;13.480;2022-09-13T02:17:53;8.75;;;5.63;;
9310;SDS011;4694;52.464;13.480;2022-09-13T02:20:25;6.38;;;5.65;;
9310;SDS011;4694;52.464;13.480;2022-09-13T02:22:56;6.38;;;5.15;;
9310;SDS011;4694;52.464;13.480;2022-09-13T02:25:26;7.07;;;5.63;;
9310;SDS011;4694;52.464;13.480;2022-09-13T02:27:58;7.15;;;5.53;;
9310;SDS011;4694;52.464;13.480;2022-09-13T02:30:28;6.22;;;5.63;;
9310;SDS011;4694;52.464;13.480;2022-09-13T02:33:00;7.10;;;6.43;;
9310;SDS011;4694;52.464;13.480;2022-09-13T02:35:33;5.57;;;5.07;;
9310;SDS011;4694;52.464;13.480;2022-09-13T02:38:05;7.13;;;5.25;;
9310;SDS011;4694;52.464;13.480;2022-09-13T02:40:39;7.05;;;6.07;;
9310;SDS011;4694;52.464;13.480;2022-09-13T02:43:11;7.55;;;5.72;;
9310;SDS011;4694;52.464;13.480;2022-09-13T02:45:41;5.47;;;4.72;;
9310;SDS011;4694;52.464;13.480;2022-09-13T02:48:16;7.38;;;5.28;;
9310;SDS011;4694;52.464;13.480;2022-09-13T02:50:53;5.70;;;5.00;;
9310;SDS011;4694;52.464;13.480;2022-09-13T02:53:25;8.00;;;5.32;;
9310;SDS011;4694;52.464;13.480;2022-09-13T02:55:58;6.63;;;5.95;;
9310;SDS011;4694;52.464;13.480;2022-09-13T02:58:33;9.60;;;6.22;;
9310;SDS011;4694;52.464;13.480;2022-09-13T03:01:09;8.85;;;5.25;;
9310;SDS011;4694;52.464;13.480;2022-09-13T03:03:38;6.18;;;5.57;;
9310;SDS011;4694;52.464;13.480;2022-09-13T03:06:05;7.65;;;5.88;;
9310;SDS011;4694;52.464;13.480;2022-09-13T03:08:31;5.63;;;5.13;;
9310;SDS011;4694;52.464;13.480;2022-09-13T03:11:02;5.55;;;5.13;;
9310;SDS011;4694;52.464;13.480;2022-09-13T03:13:39;6.90;;;5.25;;
9310;SDS011;4694;52.464;13.480;2022-09-13T03:16:22;9.68;;;5.10;;
9310;SDS011;4694;52.464;13.480;2022-09-13T03:19:04;8.18;;;5.78;;
9310;SDS011;4694;52.464;13.480;2022-09-13T03:21:50;6.03;;;5.20;;
9310;SDS011;4694;52.464;13.480;2022-09-13T03:24:27;10.15;;;6.20;;
9310;SDS011;4694;52.464;13.480;2022-09-13T03:27:06;5.95;;;5.35;;
9310;SDS011;4694;52.464;13.480;2022-09-13T03:29:43;8.30;;;7.07;;
9310;SDS011;4694;52.464;13.480;2022-09-13T03:32:18;8.15;;;5.95;;
9310;SDS011;4694;52.464;13.480;2022-09-13T03:34:54;9.10;;;6.60;;
9310;SDS011;4694;52.464;13.480;2022-09-13T03:37:29;6.47;;;5.57;;
9310;SDS011;4694;52.464;13.480;2022-09-13T03:40:02;9.05;;;5.95;;
9310;SDS011;4694;52.464;13.480;2022-09-13T03:42:34;6.97;;;6.28;;
9310;SDS011;4694;52.464;13.480;2022-09-13T03:45:05;6.80;;;6.00;;
9310;SDS011;4694;52.464;13.480;2022-09-13T03:47:35;8.52;;;6.43;;
9310;SDS011;4694;52.464;13.480;2022-09-13T03:50:06;8.18;;;7.22;;
9310;SDS011;4694;52.464;13.480;2022-09-13T03:52:35;9.77;;;7.20;;
9310;SDS011;4694;52.464;13.480;2022-09-13T03:55:02;10.43;;;6.75;;
9310;SDS011;4694;52.464;13.480;2022-09-13T03:57:29;7.90;;;6.47;;
9310;SDS011;4694;52.464;13.480;2022-09-13T03:59:56;9.48;;;6.93;;
9310;SDS011;4694;52.464;13.480;2022-09-13T04:02:24;6.82;;;6.13;;
9310;SDS011;4694;52.464;13.480;2022-09-13T04:04:52;49.05;;;30.40;;
9310;SDS011;4694;52.464;13.480;2022-09-13T04:07:20;12.23;;;9.13;;
9310;SDS011;4694;52.464;13.480;2022-09-13T04:09:48;9.32;;;6.63;;
9310;SDS011;4694;52.464;13.480;2022-09-13T04:12:15;9.45;;;7.75;;
9310;SDS011;4694;52.464;13.480;2022-09-13T04:14:43;9.23;;;7.47;;
9310;SDS011;4694;52.464;13.480;2022-09-13T04:17:10;9.50;;;6.97;;
9310;SDS011;4694;52.464;13.480;2022-09-13T04:19:37;8.98;;;6.78;;
9310;SDS011;4694;52.464;13.480;2022-09-13T04:22:04;7.43;;;6.72;;
9310;SDS011;4694;52.464;13.480;2022-09-13T04:24:32;26.27;;;13.32;;
9310;SDS011;4694;52.464;13.480;2022-09-13T04:27:00;12.25;;;8.05;;
9310;SDS011;4694;52.464;13.480;2022-09-13T04:29:27;10.48;;;7.90;;
9310;SDS011;4694;52.464;13.480;2022-09-13T04:31:55;10.68;;;7.00;;
9310;SDS011;4694;52.464;13.480;2022-09-13T04:34:22;9.07;;;6.50;;
9310;SDS011;4694;52.464;13.480;2022-09-13T04:36:49;9.43;;;5.93;;
9310;SDS011;4694;52.464;13.480;2022-09-13T04:39:16;8.93;;;6.93;;
9310;SDS011;4694;52.464;13.480;2022-09-13T04:41:45;8.75;;;6.90;;
9310;SDS011;4694;52.464;13.480;2022-09-13T04:44:14;7.17;;;6.43;;
9310;SDS011;4694;52.464;13.480;2022-09-13T04:46:42;8.85;;;6.80;;
9310;SDS011;4694;52.464;13.480;2022-09-13T04:49:12;9.90;;;7.22;;
9310;SDS011;4694;52.464;13.480;2022-09-13T04:51:39;7.88;;;6.15;;
9310;SDS011;4694;52.464;13.480;2022-09-13T04:54:07;9.65;;;6.70;;
9310;SDS011;4694;52.464;13.480;2022-09-13T04:56:35;8.07;;;6.53;;
9310;SDS011;4694;52.464;13.480;2022-09-13T04:59:03;11.40;;;8.35;;
9310;SDS011;4694;52.464;13.480;2022-09-13T05:01:30;8.50;;;7.43;;
9310;SDS011;4694;52.464;13.480;2022-09-13T05:03:56;8.30;;;7.50;;
9310;SDS011;4694;52.464;13.480;2022-09-13T05:06:23;9.57;;;7.30;;
9310;SDS011;4694;52.464;13.480;2022-09-13T05:08:50;9.43;;;7.13;;
9310;SDS011;4694;52.464;13.480;2022-09-13T05:11:20;8.32;;;7.38;;
9310;SDS011;4694;52.464;13.480;2022-09-13T05:13:48;8.55;;;6.53;;
9310;SDS011;4694;52.464;13.480;2022-09-13T05:16:20;10.57;;;6.97;;
9310;SDS011;4694;52.464;13.480;2022-09-13T05:18:47;9.57;;;6.70;;
9310;SDS011;4694;52.464;13.480;2022-09-13T05:21:14;10.20;;;6.97;;
9310;SDS011;4694;52.464;13.480;2022-09-13T05:23:41;7.45;;;6.32;;
9310;SDS011;4694;52.464;13.480;2022-09-13T05:26:08;8.13;;;6.72;;
9310;SDS011;4694;52.464;13.480;2022-09-13T05:28:34;11.55;;;7.00;;
9310;SDS011;4694;52.464;13.480;2022-09-13T05:31:03;9.07;;;6.68;;
9310;SDS011;4694;52.464;13.480;2022-09-13T05:33:33;7.90;;;6.47;;
9310;SDS011;4694;52.464;13.480;2022-09-13T05:38:28;8.82;;;7.13;;
9310;SDS011;4694;52.464;13.480;2022-09-13T05:40:55;7.40;;;6.03;;
9310;SDS011;4694;52.464;13.480;2022-09-13T05:43:23;7.93;;;5.93;;
9310;SDS011;4694;52.464;13.480;2022-09-13T05:45:50;8.63;;;5.70;;
9310;SDS011;4694;52.464;13.480;2022-09-13T05:48:17;9.35;;;6.80;;
9310;SDS011;4694;52.464;13.480;2022-09-13T05:50:45;9.82;;;6.80;;
9310;SDS011;4694;52.464;13.480;2022-09-13T05:53:12;8.45;;;6.53;;
9310;SDS011;4694;52.464;13.480;2022-09-13T05:55:38;9.02;;;6.68;;
9310;SDS011;4694;52.464;13.480;2022-09-13T05:58:05;10.35;;;6.65;;
9310;SDS011;4694;52.464;13.480;2022-09-13T06:00:31;8.23;;;5.97;;
9310;SDS011;4694;52.464;13.480;2022-09-13T06:02:58;9.85;;;7.05;;
9310;SDS011;4694;52.464;13.480;2022-09-13T06:05:25;12.45;;;7.95;;
9310;SDS011;4694;52.464;13.480;2022-09-13T06:07:53;12.38;;;7.15;;
9310;SDS011;4694;52.464;13.480;2022-09-13T06:10:19;10.52;;;7.60;;
9310;SDS011;4694;52.464;13.480;2022-09-13T06:12:46;9.27;;;8.25;;
9310;SDS011;4694;52.464;13.480;2022-09-13T06:15:15;9.23;;;7.40;;
9310;SDS011;4694;52.464;13.480;2022-09-13T06:17:42;10.10;;;8.07;;
9310;SDS011;4694;52.464;13.480;2022-09-13T06:20:08;13.20;;;9.48;;
9310;SDS011;4694;52.464;13.480;2022-09-13T06:22:35;10.27;;;8.27;;
9310;SDS011;4694;52.464;13.480;2022-09-13T06:25:04;13.55;;;10.40;;
9310;SDS011;4694;52.464;13.480;2022-09-13T06:27:31;15.13;;;9.60;;
9310;SDS011;4694;52.464;13.480;2022-09-13T06:29:58;9.65;;;8.68;;
9310;SDS011;4694;52.464;13.480;2022-09-13T06:32:24;14.65;;;9.82;;
9310;SDS011;4694;52.464;13.480;2022-09-13T06:34:51;14.10;;;8.73;;
9310;SDS011;4694;52.464;13.480;2022-09-13T06:37:20;11.07;;;9.65;;
9310;SDS011;4694;52.464;13.480;2022-09-13T06:39:47;13.18;;;9.52;;
9310;SDS011;4694;52.464;13.480;2022-09-13T06:42:15;12.93;;;9.05;;
9310;SDS011;4694;52.464;13.480;2022-09-13T06:44:42;11.82;;;9.32;;
9310;SDS011;4694;52.464;13.480;2022-09-13T06:47:09;15.10;;;9.50;;
9310;SDS011;4694;52.464;13.480;2022-09-13T06:49:36;15.05;;;9.70;;
9310;SDS011;4694;52.464;13.480;2022-09-13T06:52:03;15.30;;;9.60;;
9310;SDS011;4694;52.464;13.480;2022-09-13T06:54:30;18.77;;;10.75;;
9310;SDS011;4694;52.464;13.480;2022-09-13T06:56:57;18.17;;;10.18;;
9310;SDS011;4694;52.464;13.480;2022-09-13T06:59:25;13.55;;;9.45;;
9310;SDS011;4694;52.464;13.480;2022-09-13T07:01:51;18.77;;;11.05;;
9310;SDS011;4694;52.464;13.480;2022-09-13T07:04:18;16.75;;;11.15;;
9310;SDS011;4694;52.464;13.480;2022-09-13T07:06:45;18.52;;;10.23;;
9310;SDS011;4694;52.464;13.480;2022-09-13T07:09:15;13.00;;;11.38;;
9310;SDS011;4694;52.464;13.480;2022-09-13T07:11:43;13.95;;;11.30;;
9310;SDS011;4694;52.464;13.480;2022-09-13T07:14:11;18.33;;;10.77;;
9310;SDS011;4694;52.464;13.480;2022-09-13T07:16:40;13.35;;;10.20;;
9310;SDS011;4694;52.464;13.480;2022-09-13T07:19:11;17.88;;;12.68;;
9310;SDS011;4694;52.464;13.480;2022-09-13T07:21:38;14.60;;;10.02;;
9310;SDS011;4694;52.464;13.480;2022-09-13T07:24:05;15.85;;;10.13;;
9310;SDS011;4694;52.464;13.480;2022-09-13T07:26:32;17.70;;;10.80;;
9310;SDS011;4694;52.464;13.480;2022-09-13T07:28:59;12.05;;;9.20;;
9310;SDS011;4694;52.464;13.480;2022-09-13T07:31:28;11.05;;;9.25;;
9310;SDS011;4694;52.464;13.480;2022-09-13T07:33:59;10.35;;;8.75;;
9310;SDS011;4694;52.464;13.480;2022-09-13T07:36:27;15.13;;;11.25;;
9310;SDS011;4694;52.464;13.480;2022-09-13T07:38:56;12.13;;;9.75;;
9310;SDS011;4694;52.464;13.480;2022-09-13T07:41:23;14.55;;;9.18;;
9310;SDS011;4694;52.464;13.480;2022-09-13T07:43:51;11.63;;;8.13;;
9310;SDS011;4694;52.464;13.480;2022-09-13T07:46:18;14.27;;;8.55;;
9310;SDS011;4694;52.464;13.480;2022-09-13T07:48:47;13.80;;;8.43;;
9310;SDS011;4694;52.464;13.480;2022-09-13T07:51:16;11.35;;;8.63;;
9310;SDS011;4694;52.464;13.480;2022-09-13T07:56:13;9.93;;;8.68;;
9310;SDS011;4694;52.464;13.480;2022-09-13T07:58:41;11.68;;;8.45;;
9310;SDS011;4694;52.464;13.480;2022-09-13T08:01:10;11.82;;;8.43;;
9310;SDS011;4694;52.464;13.480;2022-09-13T08:03:39;11.68;;;9.05;;
9310;SDS011;4694;52.464;13.480;2022-09-13T08:06:06;12.60;;;8.95;;
9310;SDS011;4694;52.464;13.480;2022-09-13T08:08:35;11.77;;;8.35;;
9310;SDS011;4694;52.464;13.480;2022-09-13T08:11:03;11.07;;;9.23;;
9310;SDS011;4694;52.464;13.480;2022-09-13T08:13:31;13.52;;;8.93;;
9310;SDS011;4694;52.464;13.480;2022-09-13T08:16:00;10.40;;;8.32;;
9310;SDS011;4694;52.464;13.480;2022-09-13T08:18:27;10.60;;;8.73;;
9310;SDS011;4694;52.464;13.480;2022-09-13T08:20:55;10.98;;;7.63;;
9310;SDS011;4694;52.464;13.480;2022-09-13T08:23:23;13.73;;;9.88;;
9310;SDS011;4694;52.464;13.480;2022-09-13T08:25:51;11.90;;;8.55;;
9310;SDS011;4694;52.464;13.480;2022-09-13T08:28:18;13.65;;;9.07;;
9310;SDS011;4694;52.464;13.480;2022-09-13T08:30:46;12.40;;;7.70;;
9310;SDS011;4694;52.464;13.480;2022-09-13T08:33:13;14.00;;;9.18;;
9310;SDS011;4694;52.464;13.480;2022-09-13T08:35:48;10.07;;;8.05;;
9310;SDS011;4694;52.464;13.480;2022-09-13T08:38:16;10.80;;;7.78;;
9310;SDS011;4694;52.464;13.480;2022-09-13T08:40:43;8.20;;;7.35;;
9310;SDS011;4694;52.464;13.480;2022-09-13T08:43:16;10.65;;;8.82;;
9310;SDS011;4694;52.464;13.480;2022-09-13T08:45:52;10.48;;;7.35;;
9310;SDS011;4694;52.464;13.480;2022-09-13T08:48:25;12.00;;;7.93;;
9310;SDS011;4694;52.464;13.480;2022-09-13T08:50:59;9.50;;;7.55;;
9310;SDS011;4694;52.464;13.480;2022-09-13T08:53:29;10.48;;;8.35;;
9310;SDS011;4694;52.464;13.480;2022-09-13T08:55:58;10.52;;;8.07;;
9310;SDS011;4694;52.464;13.480;2022-09-13T08:58:48;10.95;;;7.68;;
9310;SDS011;4694;52.464;13.480;2022-09-13T09:01:31;9.95;;;8.68;;
9310;SDS011;4694;52.464;13.480;2022-09-13T09:04:03;9.80;;;7.78;;
9310;SDS011;4694;52.464;13.480;2022-09-13T09:06:32;10.80;;;7.20;;
9310;SDS011;4694;52.464;13.480;2022-09-13T09:09:02;9.35;;;7.38;;
9310;SDS011;4694;52.464;13.480;2022-09-13T09:11:30;13.55;;;7.00;;
9310;SDS011;4694;52.464;13.480;2022-09-13T09:14:03;12.32;;;7.28;;
9310;SDS011;4694;52.464;13.480;2022-09-13T09:16:33;8.50;;;7.53;;
9310;SDS011;4694;52.464;13.480;2022-09-13T09:19:06;6.78;;;6.15;;
9310;SDS011;4694;52.464;13.480;2022-09-13T09:21:36;8.40;;;7.13;;
9310;SDS011;4694;52.464;13.480;2022-09-13T09:24:04;7.15;;;6.45;;
9310;SDS011;4694;52.464;13.480;2022-09-13T09:26:31;8.23;;;6.50;;
9310;SDS011;4694;52.464;13.480;2022-09-13T09:28:59;10.77;;;6.53;;
9310;SDS011;4694;52.464;13.480;2022-09-13T09:31:33;11.70;;;7.18;;
9310;SDS011;4694;52.464;13.480;2022-09-13T09:34:08;6.82;;;6.00;;
9310;SDS011;4694;52.464;13.480;2022-09-13T09:39:18;8.98;;;5.72;;
9310;SDS011;4694;52.464;13.480;2022-09-13T09:41:45;7.97;;;6.22;;
9310;SDS011;4694;52.464;13.480;2022-09-13T09:44:18;6.53;;;5.80;;
9310;SDS011;4694;52.464;13.480;2022-09-13T09:46:49;10.18;;;6.25;;
9310;SDS011;4694;52.464;13.480;2022-09-13T09:49:21;10.68;;;6.82;;
9310;SDS011;4694;52.464;13.480;2022-09-13T09:52:09;9.70;;;7.15;;
9310;SDS011;4694;52.464;13.480;2022-09-13T09:54:40;7.97;;;6.95;;
9310;SDS011;4694;52.464;13.480;2022-09-13T09:57:06;6.25;;;5.65;;
9310;SDS011;4694;52.464;13.480;2022-09-13T09:59:33;10.13;;;6.32;;
9310;SDS011;4694;52.464;13.480;2022-09-13T10:02:10;6.07;;;5.30;;
9310;SDS011;4694;52.464;13.480;2022-09-13T10:04:40;12.50;;;7.32;;
9310;SDS011;4694;52.464;13.480;2022-09-13T10:07:08;9.90;;;6.63;;
9310;SDS011;4694;52.464;13.480;2022-09-13T10:09:47;6.28;;;5.68;;
9310;SDS011;4694;52.464;13.480;2022-09-13T10:12:24;8.05;;;7.20;;
9310;SDS011;4694;52.464;13.480;2022-09-13T10:14:52;8.35;;;6.28;;
9310;SDS011;4694;52.464;13.480;2022-09-13T10:17:31;9.25;;;6.20;;
9310;SDS011;4694;52.464;13.480;2022-09-13T10:19:58;6.07;;;5.43;;
9310;SDS011;4694;52.464;13.480;2022-09-13T10:22:28;8.73;;;6.68;;
9310;SDS011;4694;52.464;13.480;2022-09-13T10:25:07;7.68;;;6.25;;
9310;SDS011;4694;52.464;13.480;2022-09-13T10:27:41;7.35;;;6.50;;
9310;SDS011;4694;52.464;13.480;2022-09-13T10:30:22;7.15;;;6.45;;
9310;SDS011;4694;52.464;13.480;2022-09-13T10:32:57;9.40;;;6.68;;
9310;SDS011;4694;52.464;13.480;2022-09-13T10:35:24;7.03;;;6.32;;
9310;SDS011;4694;52.464;13.480;2022-09-13T10:37:51;9.57;;;6.57;;
9310;SDS011;4694;52.464;13.480;2022-09-13T10:40:21;9.40;;;6.60;;
9310;SDS011;4694;52.464;13.480;2022-09-13T10:42:52;7.75;;;6.53;;
9310;SDS011;4694;52.464;13.480;2022-09-13T10:45:21;7.80;;;6.32;;
9310;SDS011;4694;52.464;13.480;2022-09-13T10:47:51;7.03;;;6.35;;
9310;SDS011;4694;52.464;13.480;2022-09-13T10:50:22;7.73;;;6.80;;
9310;SDS011;4694;52.464;13.480;2022-09-13T10:52:51;8.63;;;6.32;;
9310;SDS011;4694;52.464;13.480;2022-09-13T10:55:23;9.60;;;6.30;;
9310;SDS011;4694;52.464;13.480;2022-09-13T10:58:10;7.07;;;5.63;;
9310;SDS011;4694;52.464;13.480;2022-09-13T11:00:41;11.15;;;7.53;;
9310;SDS011;4694;52.464;13.480;2022-09-13T11:03:49;10.98;;;8.02;;
9310;SDS011;4694;52.464;13.480;2022-09-13T11:06:40;12.13;;;8.38;;
9310;SDS011;4694;52.464;13.480;2022-09-13T11:09:14;10.32;;;7.65;;
9310;SDS011;4694;52.464;13.480;2022-09-13T11:11:45;10.18;;;7.30;;
9310;SDS011;4694;52.464;13.480;2022-09-13T11:14:21;11.25;;;6.63;;
9310;SDS011;4694;52.464;13.480;2022-09-13T11:16:59;7.97;;;7.13;;
9310;SDS011;4694;52.464;13.480;2022-09-13T11:19:41;12.02;;;8.70;;
9310;SDS011;4694;52.464;13.480;2022-09-13T11:22:28;11.00;;;8.68;;
9310;SDS011;4694;52.464;13.480;2022-09-13T11:25:02;12.82;;;8.10;;
9310;SDS011;4694;52.464;13.480;2022-09-13T11:27:43;13.70;;;8.98;;
9310;SDS011;4694;52.464;13.480;2022-09-13T11:30:18;17.55;;;9.57;;
9310;SDS011;4694;52.464;13.480;2022-09-13T11:32:51;13.50;;;8.85;;
9310;SDS011;4694;52.464;13.480;2022-09-13T11:35:41;10.93;;;8.38;;
9310;SDS011;4694;52.464;13.480;2022-09-13T11:38:26;16.88;;;8.45;;
9310;SDS011;4694;52.464;13.480;2022-09-13T11:41:03;14.45;;;9.43;;
9310;SDS011;4694;52.464;13.480;2022-09-13T11:43:42;17.52;;;12.77;;
9310;SDS011;4694;52.464;13.480;2022-09-13T11:46:22;12.13;;;9.02;;
9310;SDS011;4694;52.464;13.480;2022-09-13T11:49:09;12.27;;;9.73;;
9310;SDS011;4694;52.464;13.480;2022-09-13T11:51:52;11.63;;;9.13;;
9310;SDS011;4694;52.464;13.480;2022-09-13T11:54:33;13.68;;;9.63;;
9310;SDS011;4694;52.464;13.480;2022-09-13T11:57:10;11.95;;;8.68;;
9310;SDS011;4694;52.464;13.480;2022-09-13T11:59:41;16.52;;;10.07;;
9310;SDS011;4694;52.464;13.480;2022-09-13T12:02:13;14.25;;;10.13;;
9310;SDS011;4694;52.464;13.480;2022-09-13T12:04:48;11.73;;;8.80;;
9310;SDS011;4694;52.464;13.480;2022-09-13T12:07:23;10.70;;;8.18;;
9310;SDS011;4694;52.464;13.480;2022-09-13T12:09:59;10.85;;;8.00;;
9310;SDS011;4694;52.464;13.480;2022-09-13T12:12:31;13.00;;;9.77;;
9310;SDS011;4694;52.464;13.480;2022-09-13T12:15:00;12.20;;;9.02;;
9310;SDS011;4694;52.464;13.480;2022-09-13T12:17:34;14.50;;;10.52;;
9310;SDS011;4694;52.464;13.480;2022-09-13T12:20:04;15.50;;;10.70;;
9310;SDS011;4694;52.464;13.480;2022-09-13T12:22:37;13.52;;;9.57;;
9310;SDS011;4694;52.464;13.480;2022-09-13T12:25:10;12.15;;;8.73;;
9310;SDS011;4694;52.464;13.480;2022-09-13T12:27:45;14.75;;;9.63;;
9310;SDS011;4694;52.464;13.480;2022-09-13T12:30:17;14.57;;;8.93;;
9310;SDS011;4694;52.464;13.480;2022-09-13T12:32:45;14.00;;;9.80;;
9310;SDS011;4694;52.464;13.480;2022-09-13T12:35:16;15.82;;;8.50;;
9310;SDS011;4694;52.464;13.480;2022-09-13T12:37:53;11.32;;;10.00;;
9310;SDS011;4694;52.464;13.480;2022-09-13T12:40:43;14.20;;;8.52;;
9310;SDS011;4694;52.464;13.480;2022-09-13T12:43:29;14.27;;;10.10;;
9310;SDS011;4694;52.464;13.480;2022-09-13T12:46:20;11.40;;;8.60;;
9310;SDS011;4694;52.464;13.480;2022-09-13T12:49:14;13.45;;;8.38;;
9310;SDS011;4694;52.464;13.480;2022-09-13T12:51:54;14.27;;;9.32;;
9310;SDS011;4694;52.464;13.480;2022-09-13T12:54:42;13.73;;;10.38;;
9310;SDS011;4694;52.464;13.480;2022-09-13T12:57:38;17.92;;;10.25;;
9310;SDS011;4694;52.464;13.480;2022-09-13T13:00:12;17.70;;;10.50;;
9310;SDS011;4694;52.464;13.480;2022-09-13T13:02:49;15.98;;;10.75;;
9310;SDS011;4694;52.464;13.480;2022-09-13T13:05:30;14.02;;;9.85;;
9310;SDS011;4694;52.464;13.480;2022-09-13T13:08:00;15.73;;;9.88;;
9310;SDS011;4694;52.464;13.480;2022-09-13T13:13:17;15.65;;;10.07;;
9310;SDS011;4694;52.464;13.480;2022-09-13T13:18:21;15.65;;;9.68;;
9310;SDS011;4694;52.464;13.480;2022-09-13T13:21:05;14.48;;;9.60;;
9310;SDS011;4694;52.464;13.480;2022-09-13T13:26:50;17.25;;;10.30;;
9310;SDS011;4694;52.464;13.480;2022-09-13T13:29:20;16.30;;;10.07;;
9310;SDS011;4694;52.464;13.480;2022-09-13T13:32:09;15.90;;;9.75;;
9310;SDS011;4694;52.464;13.480;2022-09-13T13:34:39;14.57;;;9.73;;
9310;SDS011;4694;52.464;13.480;2022-09-13T13:37:28;12.70;;;9.77;;
9310;SDS011;4694;52.464;13.480;2022-09-13T13:40:21;14.82;;;10.60;;
9310;SDS011;4694;52.464;13.480;2022-09-13T13:42:53;14.02;;;10.63;;
9310;SDS011;4694;52.464;13.480;2022-09-13T13:48:54;16.13;;;11.63;;
9310;SDS011;4694;52.464;13.480;2022-09-13T13:51:22;17.08;;;11.73;;
9310;SDS011;4694;52.464;13.480;2022-09-13T13:53:52;15.45;;;11.65;;
9310;SDS011;4694;52.464;13.480;2022-09-13T13:56:25;16.63;;;11.63;;
9310;SDS011;4694;52.464;13.480;2022-09-13T13:58:59;14.68;;;12.05;;
9310;SDS011;4694;52.464;13.480;2022-09-13T14:01:32;12.20;;;9.48;;
9310;SDS011;4694;52.464;13.480;2022-09-13T14:07:04;13.73;;;8.70;;
9310;SDS011;4694;52.464;13.480;2022-09-13T14:09:42;11.30;;;9.13;;
9310;SDS011;4694;52.464;13.480;2022-09-13T14:12:18;12.88;;;10.23;;
9310;SDS011;4694;52.464;13.480;2022-09-13T14:14:59;11.20;;;8.27;;
9310;SDS011;4694;52.464;13.480;2022-09-13T14:17:50;11.32;;;8.15;;
9310;SDS011;4694;52.464;13.480;2022-09-13T14:20:31;9.02;;;8.13;;
9310;SDS011;4694;52.464;13.480;2022-09-13T14:23:10;14.40;;;9.73;;
9310;SDS011;4694;52.464;13.480;2022-09-13T14:25:41;13.30;;;8.80;;
9310;SDS011;4694;52.464;13.480;2022-09-13T14:28:11;10.75;;;9.02;;
9310;SDS011;4694;52.464;13.480;2022-09-13T14:30:43;11.40;;;9.23;;
9310;SDS011;4694;52.464;13.480;2022-09-13T14:33:15;10.23;;;8.85;;
9310;SDS011;4694;52.464;13.480;2022-09-13T14:35:54;9.18;;;7.97;;
9310;SDS011;4694;52.464;13.480;2022-09-13T14:38:28;9.45;;;6.93;;
9310;SDS011;4694;52.464;13.480;2022-09-13T14:41:00;9.13;;;7.15;;
9310;SDS011;4694;52.464;13.480;2022-09-13T14:43:34;10.63;;;7.75;;
9310;SDS011;4694;52.464;13.480;2022-09-13T14:46:03;10.38;;;8.10;;
9310;SDS011;4694;52.464;13.480;2022-09-13T14:48:37;9.70;;;7.50;;
9310;SDS011;4694;52.464;13.480;2022-09-13T14:51:07;12.20;;;9.75;;
9310;SDS011;4694;52.464;13.480;2022-09-13T14:53:39;11.07;;;9.43;;
9310;SDS011;4694;52.464;13.480;2022-09-13T14:56:11;10.00;;;8.02;;
9310;SDS011;4694;52.464;13.480;2022-09-13T14:58:42;11.75;;;8.23;;
9310;SDS011;4694;52.464;13.480;2022-09-13T15:01:13;10.18;;;7.43;;
9310;SDS011;4694;52.464;13.480;2022-09-13T15:03:44;11.93;;;9.05;;
9310;SDS011;4694;52.464;13.480;2022-09-13T15:06:20;8.75;;;7.88;;
9310;SDS011;4694;52.464;13.480;2022-09-13T15:08:49;10.25;;;8.90;;
9310;SDS011;4694;52.464;13.480;2022-09-13T15:11:25;10.45;;;8.30;;
9310;SDS011;4694;52.464;13.480;2022-09-13T15:14:02;12.30;;;9.05;;
9310;SDS011;4694;52.464;13.480;2022-09-13T15:16:49;8.18;;;6.93;;
9310;SDS011;4694;52.464;13.480;2022-09-13T15:19:26;13.05;;;7.53;;
9310;SDS011;4694;52.464;13.480;2022-09-13T15:24:45;13.43;;;9.57;;
9310;SDS011;4694;52.464;13.480;2022-09-13T15:27:15;10.60;;;6.57;;
9310;SDS011;4694;52.464;13.480;2022-09-13T15:34:48;7.97;;;5.82;;
9310;SDS011;4694;52.464;13.480;2022-09-13T15:37:15;13.60;;;10.00;;
9310;SDS011;4694;52.464;13.480;2022-09-13T15:39:45;11.18;;;8.93;;
9310;SDS011;4694;52.464;13.480;2022-09-13T15:42:13;8.38;;;6.82;;
9310;SDS011;4694;52.464;13.480;2022-09-13T15:44:40;11.82;;;6.57;;
9310;SDS011;4694;52.464;13.480;2022-09-13T15:47:08;9.40;;;7.15;;
9310;SDS011;4694;52.464;13.480;2022-09-13T15:49:38;9.70;;;6.45;;
9310;SDS011;4694;52.464;13.480;2022-09-13T15:52:05;11.05;;;5.53;;
9310;SDS011;4694;52.464;13.480;2022-09-13T15:54:34;9.35;;;5.45;;